Airport Name : Camp Pendleton MCAS

Other Name : Camp Pendleton

ICAO : KNFG

IATA :

FAA : NFG

Latitude : 33.30125

Longitude : -117.355147

Country : United States

Local Date and Time : 10/16/2018 12:38:00 AM

 

TAF (Terminal Aerodrome Forecast)

TAF KNFG 1603/1703 03006KT 9999 SKC QNH2994INS TEMPO 1603/1609 04010G17KT BECMG 1619/1621 27010KT 9999 SKC QNH2990INS T09/1611Z T27/1622Z

 

METAR (METeorological Aerodrome Report)

KNFG 160655Z AUTO 00000KT 10SM CLR 08/M02 A3002 RMK AO2 SLP164 T00781022 $

KNFG 160555Z 04003KT 10SM CLR 11/M03 A3002 RMK AO2 SLP164 T01111033 10267 20100 52005 $

KNFG 160455Z 00000KT 10SM CLR 12/M04 A3001 RMK AO2 SLP162 T01171044 $

KNFG 160355Z 05007KT 10SM CLR 15/M05 A3001 RMK AO2 SLP160 T01501050 $